Time;durP1;ratioP1;P1;durP2;ratioP2;P2;SDS_P1;SDS_P2;PMS_P1;PMS_P2;Temp;Humidity;BMP_temperature;BMP_pressure;BME280_temperature;BME280_humidity;BME280_pressure;Samples;Min_cycle;Max_cycle;Signal;HPM_P1;HPM_P2
2022/05/30 00:00:26;;;;;;;1.92;0.90;;;15.80;91.10;;;;;;5012452;28;20037;-88
2022/05/30 00:02:52;;;;;;;2.25;0.80;;;15.80;91.10;;;;;;5012476;28;20026;-88
2022/05/30 00:05:20;;;;;;;1.90;0.85;;;15.80;91.10;;;;;;5012201;28;20033;-88
2022/05/30 00:07:45;;;;;;;1.58;0.80;;;15.80;91.10;;;;;;5013720;28;20022;-88
2022/05/30 00:10:12;;;;;;;3.42;1.05;;;15.80;91.10;;;;;;5012397;28;20029;-88
2022/05/30 00:12:38;;;;;;;2.17;0.98;;;15.80;91.10;;;;;;5012587;28;20029;-88
2022/05/30 00:15:06;;;;;;;2.78;0.70;;;15.80;91.10;;;;;;5012553;28;20134;-88
2022/05/30 00:17:32;;;;;;;2.28;0.90;;;15.80;91.10;;;;;;5012278;28;20030;-88
2022/05/30 00:19:58;;;;;;;1.05;0.70;;;15.80;91.10;;;;;;5013585;28;20026;-88
2022/05/30 00:22:24;;;;;;;2.65;1.00;;;15.80;91.10;;;;;;5013193;28;20030;-87
2022/05/30 00:24:49;;;;;;;1.52;0.80;;;15.80;91.10;;;;;;5012100;28;20025;-88
2022/05/30 00:27:18;;;;;;;2.17;0.90;;;15.80;91.10;;;;;;5012191;28;20393;-88
2022/05/30 00:29:43;;;;;;;1.08;0.70;;;15.70;91.00;;;;;;5013748;28;20427;-88
2022/05/30 00:32:09;;;;;;;1.92;0.85;;;15.70;91.10;;;;;;5012104;28;20026;-88
2022/05/30 00:34:36;;;;;;;2.83;0.75;;;15.70;91.10;;;;;;5012107;28;20022;-89
2022/05/30 00:37:03;;;;;;;2.40;1.05;;;15.70;91.00;;;;;;5011933;28;20513;-88
2022/05/30 00:39:29;;;;;;;1.88;1.05;;;15.70;91.00;;;;;;5012197;28;20038;-88
2022/05/30 00:42:16;;;;;;;4.70;0.88;;;15.70;91.00;;;;;;5012372;28;20041;-88
2022/05/30 00:44:46;;;;;;;2.40;1.00;;;15.70;91.00;;;;;;5012112;28;20048;-88
2022/05/30 00:47:12;;;;;;;3.50;0.85;;;15.70;91.00;;;;;;5013383;28;20022;-88
2022/05/30 00:49:41;;;;;;;1.80;0.95;;;15.70;91.00;;;;;;5012155;28;20018;-88
2022/05/30 00:52:15;;;;;;;3.05;0.90;;;15.70;91.00;;;;;;5012249;28;20485;-88
2022/05/30 00:54:58;;;;;;;3.05;1.08;;;15.60;91.00;;;;;;5012028;28;20021;-89
2022/05/30 00:57:25;;;;;;;1.52;0.82;;;15.60;90.90;;;;;;5014902;28;20048;-88
2022/05/30 00:59:54;;;;;;;4.53;1.00;;;15.60;90.90;;;;;;5016472;28;20062;-89
2022/05/30 01:02:23;;;;;;;2.95;1.00;;;15.60;90.90;;;;;;5015315;28;20034;-88
2022/05/30 01:07:35;;;;;;;4.93;0.90;;;15.60;90.90;;;;;;5016432;28;20598;-88
2022/05/30 01:10:03;;;;;;;2.05;1.02;;;15.60;90.90;;;;;;5016456;28;20128;-88
2022/05/30 01:12:46;;;;;;;1.83;0.82;;;15.60;90.90;;;;;;5015140;28;20427;-88
2022/05/30 01:15:14;;;;;;;1.67;0.70;;;15.60;90.90;;;;;;5015092;28;20025;-88
2022/05/30 01:18:08;;;;;;;1.65;0.80;;;15.50;90.90;;;;;;5015189;28;20560;-87
2022/05/30 01:20:40;;;;;;;2.65;0.85;;;15.50;90.90;;;;;;5015030;28;20045;-87
2022/05/30 01:23:30;;;;;;;1.80;0.82;;;15.50;90.90;;;;;;5014886;28;20029;-88
2022/05/30 01:26:16;;;;;;;1.33;0.80;;;15.50;90.90;;;;;;5014694;28;20120;-88
2022/05/30 01:28:56;;;;;;;1.25;0.73;;;15.50;90.90;;;;;;5015019;28;20033;-88
2022/05/30 01:31:22;;;;;;;4.30;0.90;;;15.50;90.90;;;;;;5015992;28;20026;-88
2022/05/30 01:33:48;;;;;;;2.75;0.77;;;15.50;90.80;;;;;;5016082;28;20393;-88
2022/05/30 01:36:14;;;;;;;1.15;0.82;;;15.50;90.80;;;;;;5014880;28;20093;-88
2022/05/30 01:38:40;;;;;;;1.92;1.05;;;15.50;90.80;;;;;;5014670;28;20050;-88
2022/05/30 01:41:07;;;;;;;1.40;0.80;;;15.40;90.70;;;;;;5014766;28;20112;-88
2022/05/30 01:43:33;;;;;;;2.28;1.00;;;15.40;90.70;;;;;;5014768;28;20041;-88
2022/05/30 01:46:11;;;;;;;1.95;0.93;;;15.40;90.70;;;;;;5015040;28;20033;-88
2022/05/30 01:48:36;;;;;;;2.95;0.65;;;15.40;90.70;;;;;;5014900;28;20029;-89
2022/05/30 01:51:02;;;;;;;2.25;0.77;;;15.40;90.70;;;;;;5014959;28;20022;-88
2022/05/30 01:53:29;;;;;;;2.33;0.93;;;15.40;90.70;;;;;;5014725;28;20034;-89
2022/05/30 01:55:55;;;;;;;2.17;0.88;;;15.40;90.70;;;;;;5014845;28;20092;-89
2022/05/30 01:58:21;;;;;;;3.75;1.20;;;15.30;90.60;;;;;;5014692;28;20543;-89
2022/05/30 02:00:47;;;;;;;3.47;1.02;;;15.30;90.60;;;;;;5014671;28;20026;-89
2022/05/30 02:03:13;;;;;;;4.97;1.35;;;15.30;90.60;;;;;;5015853;28;20116;-88
2022/05/30 02:05:40;;;;;;;4.43;1.00;;;15.30;90.60;;;;;;5014178;28;20076;-88
2022/05/30 02:08:07;;;;;;;2.47;1.02;;;15.30;90.60;;;;;;5013358;28;20026;-88
2022/05/30 02:10:34;;;;;;;2.55;1.10;;;15.30;90.60;;;;;;5015972;28;20469;-89
2022/05/30 02:13:00;;;;;;;2.40;0.90;;;15.30;90.50;;;;;;5014377;28;20079;-89
2022/05/30 02:15:25;;;;;;;1.80;0.90;;;15.30;90.50;;;;;;5013881;28;20394;-89
2022/05/30 02:17:52;;;;;;;2.17;0.93;;;15.20;90.50;;;;;;5013985;28;20026;-89
2022/05/30 02:20:18;;;;;;;2.50;1.00;;;15.30;90.50;;;;;;5013884;28;20053;-89
2022/05/30 02:22:44;;;;;;;1.10;0.70;;;15.20;90.40;;;;;;5013852;28;20276;-88
2022/05/30 02:25:12;;;;;;;2.55;1.20;;;15.20;90.40;;;;;;5013728;28;20037;-89
2022/05/30 02:27:38;;;;;;;2.20;0.80;;;15.20;90.40;;;;;;5013669;28;20021;-88
2022/05/30 02:30:05;;;;;;;1.98;0.70;;;15.20;90.40;;;;;;5013724;28;20037;-88
2022/05/30 02:32:30;;;;;;;1.13;0.70;;;15.10;90.30;;;;;;5013742;28;20029;-89
2022/05/30 02:37:41;;;;;;;4.25;0.98;;;15.20;90.40;;;;;;5006266;28;20081;-88
2022/05/30 02:40:07;;;;;;;2.28;0.90;;;15.10;90.30;;;;;;4977983;28;20030;-89
2022/05/30 02:42:33;;;;;;;2.88;0.98;;;15.20;90.30;;;;;;4978097;28;20031;-88
2022/05/30 02:44:59;;;;;;;6.18;0.93;;;15.10;90.30;;;;;;4977659;28;20033;-88
2022/05/30 02:47:24;;;;;;;1.73;0.90;;;15.10;90.30;;;;;;4977698;28;20030;-88
2022/05/30 02:49:50;;;;;;;1.42;0.80;;;15.10;90.30;;;;;;4995344;28;20031;-88
2022/05/30 02:52:16;;;;;;;2.65;1.08;;;15.10;90.30;;;;;;4977408;28;20033;-88
2022/05/30 02:54:41;;;;;;;1.35;0.82;;;15.10;90.30;;;;;;4977430;28;20026;-88
2022/05/30 02:57:08;;;;;;;1.55;0.77;;;15.10;90.30;;;;;;4977323;28;20022;-88
2022/05/30 02:59:34;;;;;;;3.42;0.90;;;15.10;90.30;;;;;;4977223;28;20533;-88
2022/05/30 03:02:00;;;;;;;1.50;0.75;;;15.10;90.30;;;;;;4977746;28;20062;-88
2022/05/30 03:04:25;;;;;;;4.25;1.05;;;15.00;90.20;;;;;;4977081;28;20536;-88
2022/05/30 03:06:51;;;;;;;1.15;0.73;;;15.00;90.20;;;;;;4977682;28;20461;-89
2022/05/30 03:09:18;;;;;;;3.60;1.13;;;15.00;90.20;;;;;;4977192;28;20046;-89
2022/05/30 03:11:44;;;;;;;1.95;0.90;;;15.00;90.20;;;;;;4977901;28;20026;-88
2022/05/30 03:14:10;;;;;;;3.20;1.05;;;15.00;90.20;;;;;;4977391;28;20030;-88
2022/05/30 03:16:36;;;;;;;1.90;0.82;;;14.90;90.50;;;;;;4977637;28;20029;-88
2022/05/30 03:19:01;;;;;;;1.77;0.77;;;15.00;90.20;;;;;;4977349;28;20077;-88
2022/05/30 03:21:27;;;;;;;2.65;0.80;;;14.90;90.20;;;;;;4977396;28;20033;-88
2022/05/30 03:23:53;;;;;;;1.98;0.80;;;14.90;90.10;;;;;;4977994;28;20022;-88
2022/05/30 03:26:20;;;;;;;3.22;0.82;;;14.90;90.10;;;;;;4994925;28;20077;-88
2022/05/30 03:28:45;;;;;;;3.15;1.17;;;14.90;90.10;;;;;;4977202;28;20505;-89
2022/05/30 03:31:11;;;;;;;1.65;0.85;;;14.90;90.10;;;;;;4977051;28;20025;-88
2022/05/30 03:33:40;;;;;;;1.10;0.80;;;14.90;90.10;;;;;;4976879;28;20461;-88
2022/05/30 03:36:15;;;;;;;3.35;1.10;;;14.90;90.10;;;;;;4977228;28;20026;-88
2022/05/30 03:38:41;;;;;;;2.40;1.40;;;14.80;90.10;;;;;;5007532;28;20045;-88
2022/05/30 03:41:07;;;;;;;2.22;1.13;;;14.80;90.10;;;;;;5012517;28;20029;-88
2022/05/30 03:43:32;;;;;;;5.57;1.08;;;14.80;90.00;;;;;;5013922;28;20026;-88
2022/05/30 03:45:58;;;;;;;4.13;1.10;;;14.80;90.10;;;;;;5012435;28;20033;-88
2022/05/30 03:48:24;;;;;;;2.25;1.08;;;14.80;90.00;;;;;;5012735;28;20026;-89
2022/05/30 03:50:49;;;;;;;2.50;0.93;;;14.80;90.00;;;;;;5012728;28;20029;-89
2022/05/30 03:53:16;;;;;;;1.33;0.98;;;14.80;90.10;;;;;;5012803;28;20033;-89
2022/05/30 03:55:44;;;;;;;2.85;1.23;;;14.80;90.10;;;;;;5012774;28;20393;-89
2022/05/30 03:58:12;;;;;;;2.25;1.00;;;14.80;90.00;;;;;;5012386;28;20029;-88
2022/05/30 04:00:41;;;;;;;3.10;1.10;;;14.80;90.10;;;;;;5013795;28;20034;-89
2022/05/30 04:03:07;;;;;;;3.10;1.13;;;14.80;90.10;;;;;;5012457;28;20029;-88
2022/05/30 04:05:33;;;;;;;2.67;1.02;;;14.80;90.10;;;;;;5013772;28;20116;-88
2022/05/30 04:07:58;;;;;;;1.70;0.80;;;14.80;90.00;;;;;;5012716;28;20057;-89
2022/05/30 04:10:24;;;;;;;2.10;0.88;;;14.80;90.00;;;;;;5013356;28;20026;-89
2022/05/30 04:12:51;;;;;;;1.42;0.93;;;14.80;90.00;;;;;;5012600;28;20064;-88
2022/05/30 04:15:21;;;;;;;4.65;0.95;;;14.70;90.00;;;;;;5012602;28;20034;-88
2022/05/30 04:17:48;;;;;;;3.88;0.90;;;14.70;90.00;;;;;;5012658;28;20026;-89
2022/05/30 04:20:14;;;;;;;3.03;1.00;;;14.70;90.00;;;;;;5012799;28;20030;-88
2022/05/30 04:22:40;;;;;;;3.60;1.20;;;14.70;90.00;;;;;;5012365;28;20034;-89
2022/05/30 04:25:06;;;;;;;3.83;0.82;;;14.70;90.00;;;;;;5011956;28;20068;-88
2022/05/30 04:27:32;;;;;;;3.28;0.98;;;14.70;90.10;;;;;;5012616;28;20382;-88
2022/05/30 04:29:58;;;;;;;2.22;1.00;;;14.70;90.10;;;;;;5012493;28;20030;-89
2022/05/30 04:32:24;;;;;;;1.80;1.05;;;14.70;90.10;;;;;;5015338;28;20331;-88
2022/05/30 04:34:50;;;;;;;2.42;0.88;;;14.70;90.10;;;;;;5017463;28;20152;-89
2022/05/30 04:37:16;;;;;;;1.95;1.00;;;14.70;90.10;;;;;;5015937;28;20497;-89
2022/05/30 04:39:41;;;;;;;2.50;0.80;;;14.70;90.10;;;;;;5016187;28;20028;-89
2022/05/30 04:42:08;;;;;;;2.38;0.88;;;14.70;90.10;;;;;;5016334;28;20053;-88
2022/05/30 04:44:37;;;;;;;2.35;0.98;;;14.70;90.10;;;;;;5016872;28;20473;-88
2022/05/30 04:47:05;;;;;;;2.20;0.90;;;14.70;90.10;;;;;;5016129;28;20068;-88
2022/05/30 04:49:31;;;;;;;2.90;1.00;;;14.70;90.10;;;;;;5016112;28;20025;-89
2022/05/30 04:51:56;;;;;;;2.92;1.13;;;14.70;90.10;;;;;;5016349;28;20446;-88
2022/05/30 04:54:24;;;;;;;4.10;1.08;;;14.70;90.20;;;;;;5016051;28;20026;-88
2022/05/30 04:56:50;;;;;;;2.55;0.80;;;14.70;90.20;;;;;;5015882;28;20050;-88
2022/05/30 04:59:15;;;;;;;3.05;1.00;;;14.70;90.20;;;;;;5016946;28;20026;-89
2022/05/30 05:01:41;;;;;;;1.98;1.20;;;14.60;90.20;;;;;;5015870;28;20030;-89
2022/05/30 05:04:09;;;;;;;2.72;1.00;;;14.70;90.20;;;;;;5016757;28;20049;-88
2022/05/30 05:06:35;;;;;;;2.08;1.10;;;14.60;90.20;;;;;;5015524;28;20034;-88
2022/05/30 05:09:01;;;;;;;4.82;1.20;;;14.60;90.20;;;;;;5015830;28;20049;-89
2022/05/30 05:11:29;;;;;;;1.63;1.20;;;14.70;90.30;;;;;;5015335;28;20022;-89
2022/05/30 05:13:56;;;;;;;1.83;0.98;;;14.60;90.30;;;;;;5015424;28;20080;-88
2022/05/30 05:16:24;;;;;;;1.50;1.05;;;14.70;90.30;;;;;;5015379;28;20026;-88
2022/05/30 05:18:50;;;;;;;1.35;0.90;;;14.70;90.40;;;;;;5016310;28;20480;-88
2022/05/30 05:21:18;;;;;;;2.05;0.90;;;14.70;90.40;;;;;;5015266;28;20464;-88
2022/05/30 05:23:44;;;;;;;2.60;1.13;;;14.60;90.40;;;;;;5015330;28;20057;-88
2022/05/30 05:26:10;;;;;;;1.58;0.80;;;14.70;90.50;;;;;;5016538;28;20058;-88
2022/05/30 05:28:36;;;;;;;2.00;1.00;;;14.70;90.50;;;;;;5015386;28;20037;-88
2022/05/30 05:31:02;;;;;;;2.17;0.93;;;14.70;90.60;;;;;;5015263;28;20073;-89
2022/05/30 05:33:28;;;;;;;2.88;0.90;;;14.70;90.60;;;;;;5015310;28;20030;-88
2022/05/30 05:35:54;;;;;;;2.25;1.15;;;14.70;90.60;;;;;;5014828;28;20026;-89
2022/05/30 05:38:20;;;;;;;1.50;1.00;;;14.70;90.60;;;;;;5014677;28;20056;-88
2022/05/30 05:40:46;;;;;;;2.88;1.23;;;14.70;90.70;;;;;;5014736;28;20040;-89
2022/05/30 05:43:12;;;;;;;2.33;1.10;;;14.70;90.70;;;;;;5014681;28;20036;-88
2022/05/30 05:45:40;;;;;;;3.28;1.15;;;14.70;90.80;;;;;;5014624;28;20033;-88
2022/05/30 05:48:08;;;;;;;2.05;1.13;;;14.70;90.80;;;;;;5014577;28;20026;-88
2022/05/30 05:50:33;;;;;;;2.53;0.98;;;14.70;90.80;;;;;;5014523;28;20128;-88
2022/05/30 05:52:59;;;;;;;1.60;1.00;;;14.70;90.90;;;;;;5014579;28;20137;-88
2022/05/30 05:55:26;;;;;;;1.80;0.75;;;14.80;90.90;;;;;;5014618;28;20400;-88
2022/05/30 05:57:51;;;;;;;1.88;0.88;;;14.70;90.90;;;;;;5014204;28;20470;-88
2022/05/30 06:00:18;;;;;;;3.65;0.93;;;14.80;91.00;;;;;;5014250;28;20022;-88
2022/05/30 06:02:43;;;;;;;1.48;0.90;;;14.70;91.10;;;;;;5014266;28;20026;-88
2022/05/30 06:05:10;;;;;;;2.00;1.20;;;14.70;91.10;;;;;;5014475;28;20030;-88
2022/05/30 06:07:40;;;;;;;2.13;1.10;;;14.80;91.10;;;;;;5014032;28;20108;-88
2022/05/30 06:10:09;;;;;;;2.53;1.30;;;14.70;91.10;;;;;;5014175;28;20022;-88
2022/05/30 06:12:37;;;;;;;3.15;1.40;;;14.80;91.20;;;;;;5015491;28;20420;-87
2022/05/30 06:15:05;;;;;;;4.80;1.52;;;14.70;91.30;;;;;;5013900;28;20061;-88
2022/05/30 06:17:33;;;;;;;2.80;1.58;;;14.70;91.30;;;;;;5014248;28;20026;-88
2022/05/30 06:20:00;;;;;;;3.58;1.52;;;14.80;91.40;;;;;;5014624;28;20519;-88
2022/05/30 06:22:26;;;;;;;2.50;1.45;;;14.80;91.40;;;;;;5014040;28;20064;-88
2022/05/30 06:24:51;;;;;;;3.25;1.63;;;14.80;91.50;;;;;;5014194;28;20025;-88
2022/05/30 06:27:19;;;;;;;2.75;1.27;;;14.80;91.50;;;;;;5013915;28;20025;-88
2022/05/30 06:29:45;;;;;;;3.50;1.60;;;14.80;91.50;;;;;;5013890;28;20025;-88
2022/05/30 06:32:11;;;;;;;2.38;1.15;;;14.80;91.60;;;;;;5014489;28;20477;-88
2022/05/30 06:34:37;;;;;;;2.85;1.50;;;14.80;91.60;;;;;;5014038;28;20022;-88
2022/05/30 06:37:03;;;;;;;3.60;1.40;;;14.80;91.60;;;;;;5013435;28;20496;-88
2022/05/30 06:39:28;;;;;;;3.72;1.35;;;14.80;91.70;;;;;;5013646;28;20030;-88
2022/05/30 06:41:54;;;;;;;3.63;1.27;;;14.80;91.70;;;;;;5013553;28;20041;-88
2022/05/30 06:44:20;;;;;;;2.53;1.30;;;14.80;91.80;;;;;;5013501;28;20426;-88
2022/05/30 06:46:46;;;;;;;3.10;1.33;;;14.80;91.90;;;;;;5014213;28;20026;-88
2022/05/30 06:49:12;;;;;;;3.00;1.40;;;14.80;91.90;;;;;;5013245;28;20053;-87
2022/05/30 06:51:39;;;;;;;3.78;1.38;;;14.90;91.90;;;;;;5013722;28;20017;-88
2022/05/30 06:54:06;;;;;;;2.88;1.38;;;14.90;91.90;;;;;;4996840;28;20038;-88
2022/05/30 06:56:35;;;;;;;1.75;1.15;;;14.90;92.00;;;;;;5014679;28;20477;-88
2022/05/30 06:59:01;;;;;;;3.22;1.10;;;14.90;92.00;;;;;;5013231;28;20452;-88
2022/05/30 07:01:29;;;;;;;3.42;1.30;;;14.90;92.00;;;;;;5013360;28;20060;-89
2022/05/30 07:03:55;;;;;;;2.72;1.20;;;14.90;92.00;;;;;;5013275;28;20481;-88
2022/05/30 07:06:28;;;;;;;4.72;1.20;;;14.90;92.00;;;;;;5014311;28;20029;-88
2022/05/30 07:08:54;;;;;;;2.03;1.00;;;14.90;92.00;;;;;;5013114;28;20474;-88
2022/05/30 07:11:21;;;;;;;2.28;1.15;;;14.90;92.00;;;;;;5013959;28;20097;-88
2022/05/30 07:13:47;;;;;;;2.88;1.10;;;14.90;92.00;;;;;;5013452;28;20022;-88
2022/05/30 07:16:13;;;;;;;2.78;1.30;;;15.00;92.00;;;;;;5013402;28;20412;-88
2022/05/30 07:18:39;;;;;;;3.50;1.20;;;14.90;92.00;;;;;;5013008;28;20117;-88
2022/05/30 07:21:09;;;;;;;1.60;1.10;;;15.00;92.00;;;;;;5013403;28;20169;-88
2022/05/30 07:23:37;;;;;;;3.53;1.30;;;15.00;92.00;;;;;;5014085;28;20037;-88
2022/05/30 07:26:06;;;;;;;3.60;1.25;;;15.00;92.00;;;;;;5012654;28;20025;-88
2022/05/30 07:28:32;;;;;;;2.88;1.20;;;15.00;92.00;;;;;;5012924;28;20393;-88
2022/05/30 07:31:14;;;;;;;3.70;1.13;;;15.00;91.90;;;;;;5012929;28;20056;-89
2022/05/30 07:33:42;;;;;;;6.07;1.30;;;15.00;91.90;;;;;;5013080;28;20065;-89
2022/05/30 07:36:12;;;;;;;2.63;1.02;;;15.00;91.90;;;;;;5013169;28;20030;-88
2022/05/30 07:38:38;;;;;;;1.80;1.05;;;15.00;91.90;;;;;;5012764;28;20137;-89
2022/05/30 07:41:04;;;;;;;1.52;0.93;;;15.10;91.90;;;;;;5014253;28;20026;-89
2022/05/30 07:43:30;;;;;;;2.05;0.93;;;15.10;91.80;;;;;;5013003;28;20022;-89
2022/05/30 07:46:04;;;;;;;2.22;1.08;;;15.10;91.80;;;;;;5013496;28;20112;-89
2022/05/30 07:48:30;;;;;;;4.90;1.00;;;15.10;91.80;;;;;;5013396;28;20018;-89
2022/05/30 07:50:57;;;;;;;3.28;1.02;;;15.10;91.80;;;;;;5013078;28;20030;-88
2022/05/30 07:53:24;;;;;;;1.15;0.77;;;15.10;91.70;;;;;;5013179;28;20099;-88
2022/05/30 07:55:50;;;;;;;2.75;1.15;;;15.20;91.70;;;;;;5012925;28;20029;-89
2022/05/30 07:58:15;;;;;;;3.55;1.13;;;15.20;91.70;;;;;;5012788;28;20567;-88
2022/05/30 08:00:41;;;;;;;2.72;1.17;;;15.20;91.70;;;;;;5013027;28;20370;-90
2022/05/30 08:03:11;;;;;;;2.88;1.00;;;15.20;91.60;;;;;;5013086;28;20061;-90
2022/05/30 08:05:39;;;;;;;2.58;1.00;;;15.20;91.70;;;;;;5012472;28;20076;-90
2022/05/30 08:08:06;;;;;;;4.70;1.17;;;15.30;91.70;;;;;;5017802;28;20026;-90
2022/05/30 08:10:32;;;;;;;2.58;1.00;;;15.30;91.60;;;;;;5017512;28;20106;-90
2022/05/30 08:12:58;;;;;;;3.08;1.23;;;15.30;91.60;;;;;;5017527;28;20053;-89
2022/05/30 08:15:24;;;;;;;3.95;1.27;;;15.30;91.60;;;;;;5016964;28;20649;-90
2022/05/30 08:17:57;;;;;;;3.45;1.08;;;15.40;91.60;;;;;;5000899;28;20041;-90
2022/05/30 08:20:24;;;;;;;3.28;1.15;;;15.40;91.40;;;;;;5016760;28;20030;-88
2022/05/30 08:22:50;;;;;;;4.75;1.38;;;15.40;91.40;;;;;;5016669;28;20026;-88
2022/05/30 08:25:17;;;;;;;3.65;1.23;;;15.50;91.40;;;;;;5016445;28;20378;-88
2022/05/30 08:27:44;;;;;;;4.45;1.35;;;15.50;91.40;;;;;;5016516;28;20018;-88
2022/05/30 08:30:12;;;;;;;3.13;0.90;;;15.50;91.40;;;;;;5016752;28;20022;-89
2022/05/30 08:32:41;;;;;;;3.28;0.90;;;15.50;91.40;;;;;;5016991;28;20532;-89
2022/05/30 08:35:09;;;;;;;4.03;1.10;;;15.50;91.30;;;;;;5017056;28;20065;-89
2022/05/30 08:37:37;;;;;;;7.50;1.27;;;15.50;91.60;;;;;;5016290;28;20139;-88
2022/05/30 08:42:53;;;;;;;4.57;1.10;;;15.60;91.10;;;;;;5018179;28;20044;-88
2022/05/30 08:45:22;;;;;;;3.65;1.08;;;15.60;91.10;;;;;;5017159;28;20030;-90
2022/05/30 08:47:57;;;;;;;3.47;1.30;;;15.60;91.10;;;;;;5016959;28;20468;-90
2022/05/30 08:50:50;;;;;;;4.75;1.27;;;15.70;91.10;;;;;;5017737;28;20032;-89
2022/05/30 08:53:46;;;;;;;3.70;1.02;;;15.70;91.10;;;;;;5017455;28;20028;-90
2022/05/30 08:56:24;;;;;;;3.55;1.05;;;15.80;91.00;;;;;;5016909;28;20026;-89
2022/05/30 08:59:41;;;;;;;1.83;0.82;;;15.80;91.10;;;;;;5016862;28;20126;-90
2022/05/30 09:02:36;;;;;;;2.90;1.10;;;15.80;91.00;;;;;;4964099;28;20034;-89
2022/05/30 09:05:33;;;;;;;3.95;1.13;;;15.80;90.90;;;;;;5016001;28;20481;-89
2022/05/30 09:08:07;;;;;;;4.38;1.00;;;15.90;90.80;;;;;;5008266;28;20153;-89
2022/05/30 09:10:39;;;;;;;4.25;1.20;;;15.90;90.80;;;;;;5016046;28;20512;-88
2022/05/30 09:13:21;;;;;;;1.27;0.80;;;15.90;90.70;;;;;;5015849;28;20061;-88
2022/05/30 09:15:56;;;;;;;3.17;1.10;;;16.00;90.60;;;;;;5015311;28;20030;-89
2022/05/30 09:18:28;;;;;;;4.82;1.10;;;16.00;90.50;;;;;;5016729;28;20030;-88
2022/05/30 09:20:54;;;;;;;2.55;0.88;;;16.10;90.50;;;;;;5015691;28;20025;-89
2022/05/30 09:23:24;;;;;;;3.30;1.10;;;16.10;90.20;;;;;;5015806;28;20116;-89
2022/05/30 09:25:56;;;;;;;5.60;1.00;;;16.10;90.10;;;;;;5016282;28;20086;-90
2022/05/30 09:28:23;;;;;;;2.00;0.80;;;16.20;90.00;;;;;;5016555;28;20026;-88
2022/05/30 09:31:01;;;;;;;3.30;0.85;;;16.20;90.10;;;;;;5016014;28;20117;-89
2022/05/30 09:33:34;;;;;;;3.90;1.10;;;16.10;90.20;;;;;;5017223;28;20022;-89
2022/05/30 09:36:12;;;;;;;3.07;0.97;;;16.10;90.20;;;;;;5016299;28;20099;-89
2022/05/30 09:38:45;;;;;;;5.97;1.27;;;16.10;90.20;;;;;;5016527;28;20050;-90
2022/05/30 09:41:26;;;;;;;2.70;0.93;;;16.10;90.10;;;;;;5015918;28;20079;-90
2022/05/30 09:43:58;;;;;;;2.45;0.70;;;16.00;90.20;;;;;;5016319;28;20034;-89
2022/05/30 09:46:50;;;;;;;3.97;1.27;;;16.00;90.00;;;;;;5017710;28;20034;-90
2022/05/30 09:49:21;;;;;;;2.17;1.02;;;16.00;90.30;;;;;;5016614;28;20080;-89
2022/05/30 09:51:50;;;;;;;2.30;0.80;;;16.00;90.30;;;;;;5015317;28;20532;-90
2022/05/30 09:54:25;;;;;;;2.20;0.80;;;16.00;90.30;;;;;;5015569;28;20026;-89
2022/05/30 09:57:13;;;;;;;3.78;1.08;;;15.90;90.30;;;;;;5016032;28;20037;-90
2022/05/30 09:59:42;;;;;;;1.92;1.05;;;15.90;90.10;;;;;;5014304;28;20064;-90
2022/05/30 10:02:38;;;;;;;4.07;1.27;;;15.90;90.30;;;;;;5014981;28;20025;-89
2022/05/30 10:05:28;;;;;;;4.95;1.02;;;15.90;90.20;;;;;;4995018;28;20042;-89
2022/05/30 10:07:57;;;;;;;3.28;0.70;;;15.90;90.20;;;;;;5002984;28;20037;-90
2022/05/30 10:10:23;;;;;;;2.00;0.75;;;15.80;90.40;;;;;;5014994;28;20018;-89
2022/05/30 10:13:04;;;;;;;3.65;0.93;;;15.80;90.20;;;;;;5014823;28;20381;-89
2022/05/30 10:15:38;;;;;;;1.90;0.95;;;15.80;90.20;;;;;;5015620;28;20030;-90
2022/05/30 10:18:13;;;;;;;2.50;1.10;;;15.80;90.00;;;;;;5015807;28;20026;-90
2022/05/30 10:20:51;;;;;;;4.35;1.02;;;15.90;90.00;;;;;;5016952;28;20029;-89
2022/05/30 10:29:26;;;;;;;2.70;1.17;;;16.00;90.10;;;;;;4987400;28;20092;-90
2022/05/30 10:32:05;;;;;;;2.55;1.10;;;16.00;89.90;;;;;;5015653;28;20021;-90
2022/05/30 10:34:55;;;;;;;1.63;0.93;;;16.00;89.80;;;;;;5015789;28;20026;-90
2022/05/30 10:37:45;;;;;;;1.38;0.90;;;16.00;89.60;;;;;;5014957;28;20133;-90
2022/05/30 10:40:46;;;;;;;4.53;1.10;;;16.10;88.50;;;;;;5016529;28;20022;-90
2022/05/30 10:43:28;;;;;;;3.63;1.20;;;16.20;89.00;;;;;;5010933;28;20030;-90
2022/05/30 10:46:07;;;;;;;3.20;1.08;;;16.20;88.20;;;;;;5014986;28;20033;-90
2022/05/30 10:48:44;;;;;;;1.33;0.90;;;16.30;88.90;;;;;;5015893;28;20022;-89
2022/05/30 10:51:16;;;;;;;2.75;1.08;;;16.30;88.80;;;;;;5015050;28;20022;-89
2022/05/30 10:53:56;;;;;;;3.20;0.98;;;16.40;88.90;;;;;;5014899;28;20022;-91
2022/05/30 10:56:28;;;;;;;2.35;1.05;;;16.40;88.40;;;;;;5014864;28;20030;-90
2022/05/30 10:59:00;;;;;;;4.35;1.13;;;16.50;87.70;;;;;;5014827;28;20129;-91
2022/05/30 11:01:38;;;;;;;5.78;1.33;;;16.50;83.50;;;;;;5015723;28;20052;-89
2022/05/30 11:04:40;;;;;;;8.05;1.33;;;16.80;80.80;;;;;;5014460;28;20033;-90
2022/05/30 11:07:38;;;;;;;4.78;1.35;;;16.70;81.70;;;;;;4984484;28;20492;-90
2022/05/30 11:10:18;;;;;;;3.03;1.20;;;16.70;82.80;;;;;;5006703;28;20100;-89
2022/05/30 11:12:51;;;;;;;3.00;0.80;;;16.60;83.50;;;;;;5013798;28;20543;-89
2022/05/30 11:15:28;;;;;;;1.98;1.10;;;16.60;83.70;;;;;;5014933;28;20021;-90
2022/05/30 11:18:13;;;;;;;3.63;1.10;;;16.50;84.10;;;;;;5014484;28;20137;-89
2022/05/30 11:20:59;;;;;;;4.30;1.20;;;16.40;84.20;;;;;;5014021;28;20077;-89
2022/05/30 11:23:24;;;;;;;8.38;0.98;;;16.40;84.60;;;;;;5014614;28;20400;-89
2022/05/30 11:26:08;;;;;;;4.35;1.17;;;16.40;85.00;;;;;;5014347;28;20025;-89
2022/05/30 11:28:56;;;;;;;2.50;1.10;;;16.30;85.30;;;;;;5014324;28;20025;-90
2022/05/30 11:31:32;;;;;;;3.67;1.20;;;16.30;85.90;;;;;;5013595;28;20030;-89
2022/05/30 11:34:26;;;;;;;2.70;1.08;;;16.30;86.00;;;;;;5014748;28;20029;-89
2022/05/30 11:37:03;;;;;;;3.97;0.90;;;16.30;86.40;;;;;;4998447;28;20508;-90
2022/05/30 11:39:58;;;;;;;2.15;1.00;;;16.20;86.40;;;;;;4978000;28;20030;-90
2022/05/30 11:42:38;;;;;;;3.38;1.05;;;16.30;86.40;;;;;;4909484;28;20124;-90
2022/05/30 11:45:36;;;;;;;4.22;1.05;;;16.30;86.50;;;;;;4977858;28;20033;-90
2022/05/30 11:48:07;;;;;;;1.77;1.00;;;16.20;86.80;;;;;;4940662;28;20121;-90
2022/05/30 11:51:08;;;;;;;2.67;1.00;;;16.20;86.90;;;;;;4978804;28;20085;-90
2022/05/30 11:54:14;;;;;;;4.65;0.90;;;16.30;87.00;;;;;;4978865;28;20030;-90
2022/05/30 11:57:04;;;;;;;3.35;1.20;;;16.30;86.80;;;;;;4978097;28;20057;-90
2022/05/30 11:59:29;;;;;;;1.80;0.90;;;16.40;86.50;;;;;;4978632;28;20108;-90
2022/05/30 12:01:58;;;;;;;3.47;0.85;;;16.40;86.50;;;;;;4995014;28;20525;-91
2022/05/30 12:04:53;;;;;;;3.63;1.33;;;16.50;85.90;;;;;;4977793;28;20022;-89
2022/05/30 12:07:52;;;;;;;2.05;0.90;;;16.60;86.10;;;;;;4981369;28;20070;-89
2022/05/30 12:10:34;;;;;;;2.47;0.88;;;16.60;86.00;;;;;;4977326;28;20485;-91
2022/05/30 12:13:06;;;;;;;6.00;1.15;;;16.70;85.80;;;;;;4977148;28;20022;-90
2022/05/30 12:15:51;;;;;;;4.30;1.00;;;16.80;85.70;;;;;;4977784;28;20037;-90
2022/05/30 12:24:35;;;;;;;2.65;0.80;;;16.90;84.90;;;;;;4994424;28;20040;-89
2022/05/30 12:27:32;;;;;;;2.72;1.00;;;17.00;84.90;;;;;;4977942;28;20018;-89
2022/05/30 12:30:00;;;;;;;3.15;0.85;;;17.00;84.50;;;;;;4994508;28;20418;-90
2022/05/30 12:32:39;;;;;;;3.45;1.10;;;17.10;84.00;;;;;;4994585;28;20026;-89
2022/05/30 12:35:21;;;;;;;8.65;1.00;;;17.00;84.10;;;;;;4977337;28;20516;-91
2022/05/30 12:38:14;;;;;;;3.53;0.85;;;17.00;84.00;;;;;;4993605;28;20050;-90
2022/05/30 12:41:17;;;;;;;3.78;1.00;;;17.00;84.00;;;;;;5009721;28;20034;-91
2022/05/30 12:43:45;;;;;;;2.92;0.95;;;17.10;84.20;;;;;;4977926;28;20034;-91
2022/05/30 12:46:15;;;;;;;2.65;0.90;;;17.10;84.30;;;;;;5012969;28;20022;-90
2022/05/30 12:48:58;;;;;;;2.75;0.80;;;17.10;84.00;;;;;;5013135;28;20026;-91
2022/05/30 12:51:31;;;;;;;3.65;0.90;;;17.20;83.70;;;;;;5012872;28;20462;-90
2022/05/30 12:54:01;;;;;;;1.80;0.70;;;17.30;83.90;;;;;;5016340;28;20527;-91
2022/05/30 12:56:43;;;;;;;1.80;0.80;;;17.30;83.40;;;;;;5016164;28;20076;-90
2022/05/30 12:59:10;;;;;;;3.00;1.08;;;17.40;83.20;;;;;;5017020;28;20457;-90
2022/05/30 13:01:42;;;;;;;2.05;0.90;;;17.50;83.00;;;;;;5016465;28;20034;-90
2022/05/30 13:04:29;;;;;;;2.45;1.00;;;17.50;83.00;;;;;;5015917;28;20026;-89
2022/05/30 13:06:57;;;;;;;2.30;0.80;;;17.50;83.00;;;;;;5015693;28;20428;-89
2022/05/30 13:09:33;;;;;;;3.70;1.10;;;17.50;83.00;;;;;;5015822;28;20030;-89
2022/05/30 13:12:04;;;;;;;2.35;0.90;;;17.40;83.40;;;;;;5017210;28;20017;-90
2022/05/30 13:14:54;;;;;;;2.58;0.88;;;17.50;84.10;;;;;;5015904;28;20018;-90
2022/05/30 13:17:19;;;;;;;2.92;1.00;;;17.60;83.10;;;;;;5015986;28;20030;-90
2022/05/30 13:20:05;;;;;;;2.00;0.90;;;17.90;82.60;;;;;;5015946;28;20030;-89
2022/05/30 13:22:46;;;;;;;1.95;0.80;;;18.00;82.00;;;;;;5015612;28;20030;-90
2022/05/30 13:25:29;;;;;;;2.92;1.00;;;18.30;81.50;;;;;;5015525;28;20049;-90
2022/05/30 13:28:02;;;;;;;1.67;0.70;;;18.40;81.00;;;;;;5015509;28;20116;-89
2022/05/30 13:30:29;;;;;;;2.97;0.80;;;18.50;80.60;;;;;;5015452;28;20382;-90